createdAt,value
2024-03-07T00:00:45.765Z,3.30
2024-03-07T00:03:13.050Z,5.00
2024-03-07T00:05:41.037Z,4.00
2024-03-07T00:08:08.517Z,2.80
2024-03-07T00:10:37.501Z,3.90
2024-03-07T00:13:05.139Z,3.20
2024-03-07T00:15:32.488Z,2.90
2024-03-07T00:18:01.473Z,3.10
2024-03-07T00:20:28.811Z,1.80
2024-03-07T00:22:56.103Z,3.30
2024-03-07T00:25:23.603Z,3.10
2024-03-07T00:27:54.256Z,2.90
2024-03-07T00:30:21.708Z,4.80
2024-03-07T00:32:49.481Z,2.50
2024-03-07T00:35:17.461Z,4.70
2024-03-07T00:37:45.559Z,4.30
2024-03-07T00:40:12.927Z,4.10
2024-03-07T00:42:40.190Z,3.30
2024-03-07T00:45:07.706Z,4.30
2024-03-07T00:47:35.274Z,2.60
2024-03-07T00:50:02.832Z,3.30
2024-03-07T00:52:30.385Z,3.60
2024-03-07T00:54:57.594Z,3.30
2024-03-07T00:57:24.936Z,4.30
2024-03-07T00:59:52.306Z,3.50
2024-03-07T01:02:19.848Z,3.10
2024-03-07T01:04:47.214Z,2.90
2024-03-07T01:07:14.478Z,2.80
2024-03-07T01:09:41.962Z,2.40
2024-03-07T01:12:11.378Z,2.10
2024-03-07T01:14:38.903Z,2.40
2024-03-07T01:17:09.172Z,2.50
2024-03-07T01:19:36.717Z,2.70
2024-03-07T01:22:04.014Z,3.20
2024-03-07T01:24:31.443Z,3.40
2024-03-07T01:27:01.106Z,3.80
2024-03-07T01:29:29.123Z,3.50
2024-03-07T01:31:56.523Z,3.80
2024-03-07T01:34:23.759Z,5.40
2024-03-07T01:36:51.020Z,7.10
2024-03-07T01:39:19.130Z,6.80
2024-03-07T01:41:46.463Z,5.90
2024-03-07T01:44:13.747Z,3.80
2024-03-07T01:46:42.905Z,3.60
2024-03-07T01:49:10.200Z,4.60
2024-03-07T01:51:37.527Z,4.00
2024-03-07T01:54:05.066Z,4.00
2024-03-07T01:56:32.558Z,2.70
2024-03-07T01:59:00.182Z,2.80
2024-03-07T02:01:27.660Z,4.10
2024-03-07T02:03:55.188Z,4.40
2024-03-07T02:06:22.450Z,3.30
2024-03-07T02:08:49.743Z,3.30
2024-03-07T02:11:17.142Z,2.50
2024-03-07T02:13:44.529Z,2.70
2024-03-07T02:16:12.197Z,3.20
2024-03-07T02:18:39.585Z,3.60
2024-03-07T02:21:08.595Z,2.90
2024-03-07T02:23:36.142Z,3.50
2024-03-07T02:26:04.287Z,2.90
2024-03-07T02:28:31.549Z,3.80
2024-03-07T02:30:58.823Z,2.70
2024-03-07T02:33:26.869Z,3.40
2024-03-07T02:35:54.401Z,3.50
2024-03-07T02:38:21.901Z,2.80
2024-03-07T02:40:49.533Z,3.10
2024-03-07T02:43:17.187Z,3.40
2024-03-07T02:45:44.477Z,3.40
2024-03-07T02:48:12.324Z,3.50
2024-03-07T02:50:40.000Z,3.20
2024-03-07T02:53:08.258Z,2.30
2024-03-07T02:55:35.608Z,2.90
2024-03-07T02:58:02.993Z,3.60
2024-03-07T03:00:33.322Z,3.40
2024-03-07T03:03:00.689Z,2.40
2024-03-07T03:05:28.064Z,2.70
2024-03-07T03:07:55.899Z,2.70
2024-03-07T03:10:30.836Z,3.20
2024-03-07T03:13:00.520Z,3.60
2024-03-07T03:15:28.461Z,3.10
2024-03-07T03:17:55.841Z,3.00
2024-03-07T03:20:26.466Z,3.10
2024-03-07T03:23:07.612Z,3.00
2024-03-07T03:25:42.701Z,3.40
2024-03-07T03:28:11.114Z,3.90
2024-03-07T03:30:39.485Z,3.50
2024-03-07T03:33:07.512Z,3.30
2024-03-07T03:35:35.518Z,3.40
2024-03-07T03:38:02.955Z,5.70
2024-03-07T03:40:30.340Z,4.30
2024-03-07T03:42:57.755Z,3.60
2024-03-07T03:45:26.461Z,4.00
2024-03-07T03:47:54.186Z,3.30
2024-03-07T03:50:24.298Z,3.00
2024-03-07T03:52:51.778Z,3.20
2024-03-07T03:55:19.171Z,4.30
2024-03-07T03:59:45.623Z,3.80
2024-03-07T04:02:13.435Z,4.10
2024-03-07T04:04:41.334Z,4.10
2024-03-07T04:07:08.594Z,4.30
2024-03-07T04:09:35.913Z,3.70
2024-03-07T04:12:03.326Z,3.80
2024-03-07T04:14:34.098Z,3.90
2024-03-07T04:17:01.408Z,4.80
2024-03-07T04:19:28.943Z,4.70
2024-03-07T04:21:56.186Z,4.70
2024-03-07T04:24:23.446Z,5.20
2024-03-07T04:26:50.747Z,4.50
2024-03-07T04:29:18.817Z,4.50
2024-03-07T04:31:46.627Z,4.90
2024-03-07T04:34:14.245Z,4.90
2024-03-07T04:36:42.759Z,3.90
2024-03-07T04:39:23.568Z,3.80
2024-03-07T04:41:56.110Z,3.90
2024-03-07T04:44:26.302Z,4.70
2024-03-07T04:46:57.848Z,9.50
2024-03-07T04:49:25.850Z,17.30
2024-03-07T04:51:56.978Z,16.30
2024-03-07T04:54:24.784Z,9.90
2024-03-07T04:56:52.814Z,7.40
2024-03-07T04:59:21.016Z,5.40
2024-03-07T05:01:48.978Z,5.30
2024-03-07T05:04:16.698Z,4.50
2024-03-07T05:06:44.595Z,3.50
2024-03-07T05:09:23.986Z,2.70
2024-03-07T05:11:54.645Z,3.10
2024-03-07T05:14:23.293Z,4.70
2024-03-07T05:17:06.021Z,6.00
2024-03-07T05:19:34.319Z,5.00
2024-03-07T05:22:02.390Z,5.20
2024-03-07T05:24:29.694Z,6.40
2024-03-07T05:26:58.027Z,6.10
2024-03-07T05:29:25.407Z,5.00
2024-03-07T05:31:52.802Z,6.50
2024-03-07T05:34:20.585Z,4.40
2024-03-07T05:36:48.330Z,3.80
2024-03-07T05:39:16.847Z,6.40
2024-03-07T05:41:46.805Z,6.90
2024-03-07T05:44:14.383Z,9.30
2024-03-07T05:46:43.299Z,5.30
2024-03-07T05:49:10.588Z,4.30
2024-03-07T05:51:37.817Z,4.50
2024-03-07T05:54:07.929Z,4.10
2024-03-07T05:56:38.249Z,4.30
2024-03-07T05:59:05.658Z,3.70
2024-03-07T06:01:34.036Z,4.90
2024-03-07T06:04:01.880Z,5.50
2024-03-07T06:06:29.739Z,5.20
2024-03-07T06:08:57.857Z,4.80
2024-03-07T06:11:25.368Z,5.50
2024-03-07T06:13:52.672Z,4.70
2024-03-07T06:16:21.495Z,3.20
2024-03-07T06:18:48.998Z,3.20
2024-03-07T06:21:17.089Z,2.70
2024-03-07T06:23:44.763Z,2.70
2024-03-07T06:26:18.048Z,3.30
2024-03-07T06:28:46.606Z,4.80
2024-03-07T06:31:13.896Z,5.60
2024-03-07T06:33:41.220Z,3.30
2024-03-07T06:36:10.395Z,3.80
2024-03-07T06:38:37.839Z,6.30
2024-03-07T06:41:06.180Z,6.10
2024-03-07T06:43:33.572Z,5.80
2024-03-07T06:46:00.812Z,4.80
2024-03-07T06:48:29.158Z,4.90
2024-03-07T06:50:56.759Z,3.80
2024-03-07T06:53:27.475Z,5.40
2024-03-07T06:55:54.894Z,3.80
2024-03-07T06:58:22.357Z,3.00
2024-03-07T07:00:53.140Z,4.40
2024-03-07T07:03:21.314Z,3.70
2024-03-07T07:05:48.689Z,4.10
2024-03-07T07:08:17.127Z,3.90
2024-03-07T07:10:44.504Z,2.90
2024-03-07T07:13:12.045Z,3.80
2024-03-07T07:15:39.277Z,2.40
2024-03-07T07:18:08.803Z,3.10
2024-03-07T07:20:36.433Z,4.80
2024-03-07T07:23:04.847Z,4.00
2024-03-07T07:25:35.222Z,5.00
2024-03-07T07:28:05.340Z,3.90
2024-03-07T07:30:33.147Z,4.70
2024-03-07T07:33:00.610Z,5.90
2024-03-07T07:35:28.234Z,6.30
2024-03-07T07:37:57.496Z,5.20
2024-03-07T07:40:26.375Z,5.00
2024-03-07T07:42:54.142Z,5.50
2024-03-07T07:45:22.681Z,6.80
2024-03-07T07:47:51.392Z,6.90
2024-03-07T07:50:19.842Z,6.60
2024-03-07T07:52:51.329Z,4.70
2024-03-07T07:55:18.834Z,4.90
2024-03-07T07:57:46.755Z,6.00
2024-03-07T08:00:25.165Z,3.40
2024-03-07T08:02:54.308Z,3.60
2024-03-07T08:05:24.538Z,4.40
2024-03-07T08:07:52.782Z,4.90
2024-03-07T08:10:20.687Z,4.00
2024-03-07T08:12:48.270Z,4.50
2024-03-07T08:15:15.780Z,4.80
2024-03-07T08:17:47.735Z,5.50
2024-03-07T08:20:19.737Z,7.10
2024-03-07T08:22:47.363Z,5.50
2024-03-07T08:25:15.475Z,6.60
2024-03-07T08:27:43.996Z,4.00
2024-03-07T08:30:15.461Z,5.00
2024-03-07T08:32:44.261Z,4.20
2024-03-07T08:35:12.848Z,4.50
2024-03-07T08:37:40.939Z,3.90
2024-03-07T08:40:11.177Z,6.30
2024-03-07T08:42:38.887Z,8.00
2024-03-07T08:45:06.761Z,4.80
2024-03-07T08:47:35.027Z,5.20
2024-03-07T08:50:02.564Z,4.70
2024-03-07T08:52:30.027Z,5.30
2024-03-07T08:54:57.315Z,3.80
2024-03-07T08:57:24.659Z,2.40
2024-03-07T08:59:51.995Z,3.30
2024-03-07T09:02:19.338Z,4.60
2024-03-07T09:04:47.315Z,4.20
2024-03-07T09:07:15.953Z,4.20
2024-03-07T09:09:46.809Z,4.80
2024-03-07T09:12:14.671Z,4.00
2024-03-07T09:14:44.993Z,4.70
2024-03-07T09:17:14.612Z,5.20
2024-03-07T09:19:42.649Z,4.90
2024-03-07T09:22:10.307Z,4.60
2024-03-07T09:24:38.868Z,5.30
2024-03-07T09:27:06.845Z,5.20
2024-03-07T09:29:34.516Z,4.10
2024-03-07T09:32:03.745Z,4.40
2024-03-07T09:34:32.094Z,3.70
2024-03-07T09:37:00.232Z,3.90
2024-03-07T09:39:28.168Z,4.00
2024-03-07T09:41:56.262Z,4.50
2024-03-07T09:44:24.226Z,5.40
2024-03-07T09:46:52.235Z,3.50
2024-03-07T09:49:19.526Z,4.90
2024-03-07T09:51:48.088Z,4.50
2024-03-07T09:54:16.021Z,4.20
2024-03-07T09:56:43.397Z,4.70
2024-03-07T09:59:13.305Z,4.80
2024-03-07T10:01:40.809Z,5.20
2024-03-07T10:04:12.996Z,5.00
2024-03-07T10:06:41.004Z,4.70
2024-03-07T10:09:08.578Z,4.00
2024-03-07T10:11:36.549Z,4.50
2024-03-07T10:14:08.429Z,3.50
2024-03-07T10:16:35.750Z,4.00
2024-03-07T10:19:05.901Z,5.30
2024-03-07T10:21:34.958Z,4.50
2024-03-07T10:24:09.250Z,4.10
2024-03-07T10:26:39.079Z,4.70
2024-03-07T10:29:07.024Z,4.70
2024-03-07T10:31:37.612Z,5.50
2024-03-07T10:34:09.308Z,4.90
2024-03-07T10:36:36.937Z,5.70
2024-03-07T10:39:13.313Z,5.70
2024-03-07T10:41:45.877Z,4.10
2024-03-07T10:44:33.958Z,5.60
2024-03-07T10:47:04.517Z,4.90
2024-03-07T10:49:34.928Z,6.00
2024-03-07T10:52:14.410Z,4.60
2024-03-07T10:54:50.313Z,5.60
2024-03-07T10:57:33.541Z,4.80
2024-03-07T11:00:34.377Z,6.30
2024-03-07T11:03:03.641Z,4.60
2024-03-07T11:05:31.087Z,5.50
2024-03-07T11:08:00.290Z,5.00
2024-03-07T11:10:27.661Z,4.30
2024-03-07T11:12:54.969Z,4.40
2024-03-07T11:15:22.220Z,4.70
2024-03-07T11:17:55.495Z,5.70
2024-03-07T11:20:27.031Z,5.80
2024-03-07T11:22:57.465Z,5.60
2024-03-07T11:25:27.469Z,8.50
2024-03-07T11:27:59.575Z,7.20
2024-03-07T11:30:26.973Z,7.00
2024-03-07T11:32:55.819Z,12.30
2024-03-07T11:35:38.707Z,9.40
2024-03-07T11:38:07.979Z,7.30
2024-03-07T11:40:35.412Z,6.90
2024-03-07T11:43:06.223Z,5.80
2024-03-07T11:45:46.231Z,6.40
2024-03-07T11:48:14.349Z,5.50
2024-03-07T11:50:42.266Z,6.80
2024-03-07T11:53:10.227Z,6.80
2024-03-07T11:55:46.614Z,6.10
2024-03-07T11:58:17.807Z,6.90
2024-03-07T12:00:48.867Z,6.50
2024-03-07T12:03:18.657Z,6.10
2024-03-07T12:05:46.429Z,6.60
2024-03-07T12:08:13.785Z,4.50
2024-03-07T12:10:48.461Z,5.40
2024-03-07T12:13:17.135Z,5.90
2024-03-07T12:15:44.676Z,5.10
2024-03-07T12:18:12.209Z,4.90
2024-03-07T12:20:40.303Z,4.40
2024-03-07T12:23:09.798Z,8.30
2024-03-07T12:25:37.503Z,5.50
2024-03-07T12:28:31.059Z,4.90
2024-03-07T12:30:58.573Z,5.70
2024-03-07T12:33:28.990Z,5.80
2024-03-07T12:36:07.911Z,5.60
2024-03-07T12:38:39.742Z,6.70
2024-03-07T12:41:18.258Z,5.10
2024-03-07T12:43:49.378Z,5.70
2024-03-07T12:46:18.591Z,5.40
2024-03-07T12:48:47.331Z,4.90
2024-03-07T12:51:19.814Z,5.70
2024-03-07T12:53:49.081Z,6.00
2024-03-07T12:56:20.210Z,5.50
2024-03-07T12:58:50.959Z,5.30
2024-03-07T13:01:20.906Z,6.00
2024-03-07T13:03:49.153Z,5.80
2024-03-07T13:06:20.922Z,7.50
2024-03-07T13:08:48.615Z,8.40
2024-03-07T13:11:15.976Z,5.30
2024-03-07T13:13:43.543Z,6.50
2024-03-07T13:16:12.647Z,4.70
2024-03-07T13:18:40.337Z,6.60
2024-03-07T13:21:08.871Z,4.50
2024-03-07T13:23:37.745Z,5.90
2024-03-07T13:26:09.986Z,6.00
2024-03-07T13:28:37.578Z,5.20
2024-03-07T13:31:05.138Z,6.00
2024-03-07T13:33:32.646Z,4.70
2024-03-07T13:36:02.428Z,4.90
2024-03-07T13:38:31.006Z,4.20
2024-03-07T13:40:58.638Z,4.80
2024-03-07T13:43:26.076Z,4.60
2024-03-07T13:45:54.012Z,4.30
2024-03-07T13:48:21.936Z,6.50
2024-03-07T13:50:58.990Z,5.80
2024-03-07T13:53:28.906Z,5.00
2024-03-07T13:56:13.290Z,6.40
2024-03-07T13:58:52.028Z,5.70
2024-03-07T14:01:34.404Z,5.60
2024-03-07T14:04:16.982Z,6.80
2024-03-07T14:06:47.478Z,6.70
2024-03-07T14:09:33.369Z,7.10
2024-03-07T14:12:35.503Z,8.50
2024-03-07T14:15:26.045Z,9.50
2024-03-07T14:18:20.293Z,7.00
2024-03-07T14:21:19.368Z,5.00
2024-03-07T14:23:47.163Z,4.60
2024-03-07T14:26:36.792Z,5.20
2024-03-07T14:29:15.233Z,5.10
2024-03-07T14:31:45.557Z,4.80
2024-03-07T14:34:30.657Z,4.80
2024-03-07T14:37:05.113Z,4.30
2024-03-07T14:39:36.393Z,4.30
2024-03-07T14:42:04.677Z,5.50
2024-03-07T14:44:32.348Z,4.70
2024-03-07T14:47:02.916Z,5.90
2024-03-07T14:49:30.168Z,6.30
2024-03-07T14:52:00.726Z,5.30
2024-03-07T14:54:29.149Z,5.90
2024-03-07T14:56:56.704Z,7.70
2024-03-07T14:59:24.517Z,8.80
2024-03-07T15:01:52.078Z,5.10
2024-03-07T15:04:19.415Z,6.00
2024-03-07T15:06:47.236Z,5.10
2024-03-07T15:09:15.164Z,8.00
2024-03-07T15:11:43.845Z,7.00
2024-03-07T15:14:11.836Z,5.20
2024-03-07T15:16:40.043Z,6.30
2024-03-07T15:19:08.955Z,6.50
2024-03-07T15:21:37.159Z,6.40
2024-03-07T15:24:05.099Z,6.10
2024-03-07T15:26:32.698Z,6.40
2024-03-07T15:29:01.951Z,6.30
2024-03-07T15:31:29.696Z,6.40
2024-03-07T15:33:57.033Z,6.60
2024-03-07T15:36:24.621Z,7.40
2024-03-07T15:38:52.427Z,6.10
2024-03-07T15:41:21.118Z,5.70
2024-03-07T15:43:49.088Z,6.50
2024-03-07T15:46:18.358Z,7.20
2024-03-07T15:48:46.851Z,6.80
2024-03-07T15:51:15.792Z,6.30
2024-03-07T15:53:44.106Z,6.90
2024-03-07T15:56:11.694Z,8.70
2024-03-07T15:58:39.038Z,7.20
2024-03-07T16:01:07.310Z,7.00
2024-03-07T16:03:34.658Z,6.50
2024-03-07T16:06:02.984Z,8.80
2024-03-07T16:08:30.466Z,7.10
2024-03-07T16:10:58.058Z,9.60
2024-03-07T16:13:25.657Z,8.90
2024-03-07T16:17:00.377Z,8.90
2024-03-07T16:19:27.860Z,9.30
2024-03-07T16:21:55.300Z,8.10
2024-03-07T16:24:22.585Z,8.60
2024-03-07T16:26:50.520Z,8.20
2024-03-07T16:29:18.043Z,9.40
2024-03-07T16:31:46.255Z,9.00
2024-03-07T16:34:14.311Z,8.90
2024-03-07T16:36:41.684Z,10.30
2024-03-07T16:39:13.311Z,9.10
2024-03-07T16:41:41.761Z,9.00
2024-03-07T16:44:09.774Z,9.10
2024-03-07T16:46:37.969Z,9.20
2024-03-07T16:49:09.374Z,8.50
2024-03-07T16:51:37.007Z,8.30
2024-03-07T16:54:06.813Z,9.30
2024-03-07T16:56:38.406Z,8.20
2024-03-07T16:59:06.154Z,7.70
2024-03-07T17:01:33.651Z,8.60
2024-03-07T17:04:01.311Z,11.00
2024-03-07T17:06:28.689Z,11.50
2024-03-07T17:08:55.977Z,10.60
2024-03-07T17:11:23.448Z,11.20
2024-03-07T17:13:51.000Z,9.90
2024-03-07T17:16:18.353Z,10.20
2024-03-07T17:18:45.717Z,8.40
2024-03-07T17:21:14.739Z,8.40
2024-03-07T17:23:42.374Z,9.00
2024-03-07T17:26:09.654Z,8.20
2024-03-07T17:28:36.913Z,9.30
2024-03-07T17:31:06.760Z,9.30
2024-03-07T17:33:34.202Z,9.50
2024-03-07T17:36:07.269Z,10.60
2024-03-07T17:38:34.977Z,11.50
2024-03-07T17:41:02.449Z,10.70
2024-03-07T17:43:29.728Z,10.70
2024-03-07T17:46:00.507Z,10.30
2024-03-07T17:48:29.752Z,11.90
2024-03-07T17:50:58.962Z,12.00
2024-03-07T17:53:27.307Z,11.70
2024-03-07T17:55:56.879Z,11.40
2024-03-07T17:58:25.172Z,10.40
2024-03-07T18:00:54.418Z,11.60
2024-03-07T18:03:21.900Z,11.80
2024-03-07T18:05:53.133Z,10.20
2024-03-07T18:08:34.652Z,11.40
2024-03-07T18:11:14.542Z,11.70
2024-03-07T18:16:11.469Z,14.70
2024-03-07T18:18:40.209Z,15.00
2024-03-07T18:21:10.297Z,13.50
2024-03-07T18:23:37.951Z,13.40
2024-03-07T18:26:08.698Z,12.90
2024-03-07T18:28:37.494Z,12.10
2024-03-07T18:31:13.592Z,12.00
2024-03-07T18:33:44.057Z,13.10
2024-03-07T18:36:14.892Z,12.70
2024-03-07T18:38:42.644Z,12.60
2024-03-07T18:41:11.261Z,18.90
2024-03-07T18:43:40.573Z,14.50
2024-03-07T18:46:09.564Z,14.10
2024-03-07T18:48:37.875Z,23.10
2024-03-07T18:51:07.149Z,23.10
2024-03-07T18:53:35.940Z,20.40
2024-03-07T18:56:12.656Z,19.40
2024-03-07T18:58:40.330Z,19.90
2024-03-07T19:01:08.759Z,21.70
2024-03-07T19:03:36.339Z,18.50
2024-03-07T19:06:04.204Z,18.50
2024-03-07T19:08:32.018Z,17.50
2024-03-07T19:10:59.943Z,18.70
2024-03-07T19:13:31.072Z,20.00
2024-03-07T19:16:02.229Z,21.70
2024-03-07T19:18:29.852Z,21.80
2024-03-07T19:20:57.395Z,22.80
2024-03-07T19:23:26.105Z,22.90
2024-03-07T19:25:54.142Z,24.30
2024-03-07T19:28:21.665Z,27.80
2024-03-07T19:30:51.516Z,34.00
2024-03-07T19:33:19.882Z,39.50
2024-03-07T19:35:47.693Z,36.70
2024-03-07T19:38:15.246Z,32.60
2024-03-07T19:40:42.816Z,30.10
2024-03-07T19:43:10.096Z,28.70
2024-03-07T19:45:41.583Z,28.50
2024-03-07T19:48:12.620Z,22.70
2024-03-07T19:50:40.765Z,22.70
2024-03-07T19:53:14.393Z,20.40
2024-03-07T19:55:43.191Z,17.60
2024-03-07T19:58:10.640Z,14.50
2024-03-07T20:00:38.094Z,16.10
2024-03-07T20:03:08.328Z,14.00
2024-03-07T20:05:35.887Z,13.40
2024-03-07T20:08:07.389Z,12.10
2024-03-07T20:10:34.887Z,10.70
2024-03-07T20:13:03.033Z,13.10
2024-03-07T20:15:30.453Z,11.00
2024-03-07T20:17:58.065Z,11.00
2024-03-07T20:20:25.764Z,11.90
2024-03-07T20:22:56.010Z,10.50
2024-03-07T20:25:23.493Z,9.50
2024-03-07T20:27:53.991Z,10.70
2024-03-07T20:30:21.307Z,10.90
2024-03-07T20:32:49.510Z,9.80
2024-03-07T20:35:19.582Z,9.00
2024-03-07T20:37:50.294Z,10.10
2024-03-07T20:40:19.070Z,10.50
2024-03-07T20:42:46.524Z,9.50
2024-03-07T20:45:16.203Z,9.20
2024-03-07T20:47:49.409Z,8.90
2024-03-07T20:50:18.216Z,8.30
2024-03-07T20:52:46.188Z,10.50
2024-03-07T20:55:18.357Z,10.80
2024-03-07T20:57:53.436Z,9.60
2024-03-07T21:00:41.806Z,9.70
2024-03-07T21:03:09.414Z,10.70
2024-03-07T21:05:38.515Z,11.70
2024-03-07T21:08:06.545Z,12.00
2024-03-07T21:10:36.294Z,11.70
2024-03-07T21:13:04.170Z,10.30
2024-03-07T21:15:31.439Z,11.40
2024-03-07T21:17:59.457Z,11.70
2024-03-07T21:20:29.233Z,11.00
2024-03-07T21:22:56.584Z,11.60
2024-03-07T21:25:23.960Z,11.60
2024-03-07T21:27:51.671Z,12.00
2024-03-07T21:30:22.168Z,11.30
2024-03-07T21:32:49.710Z,12.20
2024-03-07T21:35:17.520Z,11.00
2024-03-07T21:37:45.358Z,10.00
2024-03-07T21:40:17.514Z,10.00
2024-03-07T21:42:51.837Z,9.70
2024-03-07T21:45:19.688Z,10.30
2024-03-07T21:47:47.870Z,10.00
2024-03-07T21:50:16.980Z,11.10
2024-03-07T21:52:46.555Z,10.60
2024-03-07T21:55:14.130Z,11.50
2024-03-07T21:57:44.492Z,11.60
2024-03-07T22:00:19.968Z,12.00
2024-03-07T22:02:57.827Z,11.90
2024-03-07T22:05:30.111Z,11.10
2024-03-07T22:07:59.568Z,13.90
2024-03-07T22:10:28.585Z,12.40
2024-03-07T22:12:56.687Z,13.70
2024-03-07T22:15:24.590Z,13.70
2024-03-07T22:17:54.335Z,14.70
2024-03-07T22:20:24.709Z,13.00
2024-03-07T22:22:53.071Z,13.00
2024-03-07T22:25:22.974Z,14.30
2024-03-07T22:27:51.940Z,15.40
2024-03-07T22:30:23.485Z,14.40
2024-03-07T22:32:53.747Z,14.00
2024-03-07T22:35:21.676Z,13.30
2024-03-07T22:37:52.316Z,12.80
2024-03-07T22:40:29.109Z,12.40
2024-03-07T22:42:56.440Z,13.10
2024-03-07T22:45:24.228Z,12.80
2024-03-07T22:47:53.687Z,11.60
2024-03-07T22:50:28.378Z,10.90
2024-03-07T22:53:02.982Z,10.70
2024-03-07T22:55:31.439Z,13.00
2024-03-07T22:57:59.423Z,13.50
2024-03-07T23:00:29.118Z,15.50
2024-03-07T23:03:01.439Z,15.50
2024-03-07T23:05:30.451Z,15.30
2024-03-07T23:08:00.772Z,15.60
2024-03-07T23:10:28.981Z,16.00
2024-03-07T23:12:58.366Z,17.00
2024-03-07T23:15:28.457Z,18.20
2024-03-07T23:17:56.474Z,20.00
2024-03-07T23:20:26.342Z,19.90
2024-03-07T23:22:56.178Z,20.80
2024-03-07T23:25:24.214Z,20.70
2024-03-07T23:27:53.591Z,20.30
2024-03-07T23:30:23.405Z,18.80
2024-03-07T23:32:52.629Z,21.20
2024-03-07T23:35:20.230Z,18.90
2024-03-07T23:37:47.870Z,21.60
2024-03-07T23:40:15.649Z,20.80
2024-03-07T23:42:43.893Z,20.00
2024-03-07T23:45:13.681Z,20.20
2024-03-07T23:47:42.963Z,20.00
2024-03-07T23:50:14.296Z,20.40
2024-03-07T23:52:42.563Z,18.80
2024-03-07T23:55:13.684Z,17.30
2024-03-07T23:57:43.548Z,18.90
